sensor_id;sensor_type;location;lat;lon;timestamp;P1;durP1;ratioP1;P2;durP2;ratioP2
2966;SDS011;1493;51.496;7.210;2023-02-15T00:01:33;18.30;;;11.37;;
2966;SDS011;1493;51.496;7.210;2023-02-15T00:04:02;16.40;;;10.57;;
2966;SDS011;1493;51.496;7.210;2023-02-15T00:06:30;18.10;;;10.60;;
2966;SDS011;1493;51.496;7.210;2023-02-15T00:08:56;21.50;;;12.63;;
2966;SDS011;1493;51.496;7.210;2023-02-15T00:11:23;23.67;;;11.10;;
2966;SDS011;1493;51.496;7.210;2023-02-15T00:14:06;17.67;;;11.07;;
2966;SDS011;1493;51.496;7.210;2023-02-15T00:16:34;19.57;;;12.00;;
2966;SDS011;1493;51.496;7.210;2023-02-15T00:19:02;18.77;;;11.70;;
2966;SDS011;1493;51.496;7.210;2023-02-15T00:21:29;23.13;;;12.30;;
2966;SDS011;1493;51.496;7.210;2023-02-15T00:23:59;18.70;;;12.03;;
2966;SDS011;1493;51.496;7.210;2023-02-15T00:26:27;20.10;;;11.70;;
2966;SDS011;1493;51.496;7.210;2023-02-15T00:28:57;19.23;;;11.37;;
2966;SDS011;1493;51.496;7.210;2023-02-15T00:31:24;19.77;;;10.90;;
2966;SDS011;1493;51.496;7.210;2023-02-15T00:33:52;20.13;;;11.10;;
2966;SDS011;1493;51.496;7.210;2023-02-15T00:36:20;22.20;;;11.40;;
2966;SDS011;1493;51.496;7.210;2023-02-15T00:38:47;20.17;;;10.53;;
2966;SDS011;1493;51.496;7.210;2023-02-15T00:41:13;18.83;;;11.10;;
2966;SDS011;1493;51.496;7.210;2023-02-15T00:43:40;20.87;;;12.20;;
2966;SDS011;1493;51.496;7.210;2023-02-15T00:46:07;18.97;;;11.57;;
2966;SDS011;1493;51.496;7.210;2023-02-15T00:48:34;16.70;;;11.70;;
2966;SDS011;1493;51.496;7.210;2023-02-15T00:51:00;16.07;;;10.50;;
2966;SDS011;1493;51.496;7.210;2023-02-15T00:53:29;23.77;;;11.90;;
2966;SDS011;1493;51.496;7.210;2023-02-15T00:55:56;17.20;;;10.90;;
2966;SDS011;1493;51.496;7.210;2023-02-15T00:58:26;22.80;;;11.70;;
2966;SDS011;1493;51.496;7.210;2023-02-15T01:00:52;20.50;;;10.80;;
2966;SDS011;1493;51.496;7.210;2023-02-15T01:03:20;18.50;;;11.80;;
2966;SDS011;1493;51.496;7.210;2023-02-15T01:05:48;18.33;;;10.93;;
2966;SDS011;1493;51.496;7.210;2023-02-15T01:08:15;22.27;;;11.90;;
2966;SDS011;1493;51.496;7.210;2023-02-15T01:10:43;17.73;;;11.53;;
2966;SDS011;1493;51.496;7.210;2023-02-15T01:13:12;19.70;;;11.70;;
2966;SDS011;1493;51.496;7.210;2023-02-15T01:15:40;20.60;;;12.53;;
2966;SDS011;1493;51.496;7.210;2023-02-15T01:18:07;22.87;;;13.20;;
2966;SDS011;1493;51.496;7.210;2023-02-15T01:20:34;19.43;;;11.67;;
2966;SDS011;1493;51.496;7.210;2023-02-15T01:23:04;18.20;;;12.47;;
2966;SDS011;1493;51.496;7.210;2023-02-15T01:25:32;18.33;;;11.67;;
2966;SDS011;1493;51.496;7.210;2023-02-15T01:28:02;18.67;;;11.90;;
2966;SDS011;1493;51.496;7.210;2023-02-15T01:30:29;18.10;;;10.97;;
2966;SDS011;1493;51.496;7.210;2023-02-15T01:32:56;22.97;;;12.57;;
2966;SDS011;1493;51.496;7.210;2023-02-15T01:35:23;22.47;;;15.30;;
2966;SDS011;1493;51.496;7.210;2023-02-15T01:37:50;17.67;;;11.13;;
2966;SDS011;1493;51.496;7.210;2023-02-15T01:40:17;18.90;;;11.97;;
2966;SDS011;1493;51.496;7.210;2023-02-15T01:42:44;18.93;;;11.80;;
2966;SDS011;1493;51.496;7.210;2023-02-15T01:45:17;19.63;;;12.77;;
2966;SDS011;1493;51.496;7.210;2023-02-15T01:47:47;21.83;;;11.80;;
2966;SDS011;1493;51.496;7.210;2023-02-15T01:50:20;21.37;;;13.93;;
2966;SDS011;1493;51.496;7.210;2023-02-15T01:52:52;23.80;;;13.27;;
2966;SDS011;1493;51.496;7.210;2023-02-15T01:55:22;22.43;;;13.50;;
2966;SDS011;1493;51.496;7.210;2023-02-15T01:57:51;21.73;;;11.80;;
2966;SDS011;1493;51.496;7.210;2023-02-15T02:00:20;21.40;;;11.30;;
2966;SDS011;1493;51.496;7.210;2023-02-15T02:02:48;24.53;;;12.67;;
2966;SDS011;1493;51.496;7.210;2023-02-15T02:05:18;19.63;;;12.60;;
2966;SDS011;1493;51.496;7.210;2023-02-15T02:07:45;18.80;;;10.83;;
2966;SDS011;1493;51.496;7.210;2023-02-15T02:10:15;21.93;;;11.87;;
2966;SDS011;1493;51.496;7.210;2023-02-15T02:12:44;22.47;;;11.00;;
2966;SDS011;1493;51.496;7.210;2023-02-15T02:15:13;23.57;;;12.10;;
2966;SDS011;1493;51.496;7.210;2023-02-15T02:17:44;19.60;;;12.17;;
2966;SDS011;1493;51.496;7.210;2023-02-15T02:20:25;15.70;;;11.47;;
2966;SDS011;1493;51.496;7.210;2023-02-15T02:26:07;19.03;;;10.87;;
2966;SDS011;1493;51.496;7.210;2023-02-15T02:29:01;25.80;;;13.33;;
2966;SDS011;1493;51.496;7.210;2023-02-15T02:31:52;17.83;;;11.73;;
2966;SDS011;1493;51.496;7.210;2023-02-15T02:34:36;21.37;;;11.90;;
2966;SDS011;1493;51.496;7.210;2023-02-15T02:37:11;19.47;;;13.33;;
2966;SDS011;1493;51.496;7.210;2023-02-15T02:39:48;22.13;;;13.53;;
2966;SDS011;1493;51.496;7.210;2023-02-15T02:42:23;25.70;;;12.73;;
2966;SDS011;1493;51.496;7.210;2023-02-15T02:44:56;17.83;;;11.93;;
2966;SDS011;1493;51.496;7.210;2023-02-15T02:47:30;22.10;;;12.60;;
2966;SDS011;1493;51.496;7.210;2023-02-15T02:50:02;23.03;;;12.50;;
2966;SDS011;1493;51.496;7.210;2023-02-15T02:52:35;21.77;;;12.93;;
2966;SDS011;1493;51.496;7.210;2023-02-15T02:55:05;21.67;;;12.17;;
2966;SDS011;1493;51.496;7.210;2023-02-15T02:57:36;19.97;;;11.57;;
2966;SDS011;1493;51.496;7.210;2023-02-15T03:00:08;24.70;;;13.03;;
2966;SDS011;1493;51.496;7.210;2023-02-15T03:02:37;21.97;;;13.27;;
2966;SDS011;1493;51.496;7.210;2023-02-15T03:05:10;19.77;;;11.87;;
2966;SDS011;1493;51.496;7.210;2023-02-15T03:07:41;21.20;;;11.33;;
2966;SDS011;1493;51.496;7.210;2023-02-15T03:10:13;20.33;;;13.23;;
2966;SDS011;1493;51.496;7.210;2023-02-15T03:12:40;20.80;;;12.43;;
2966;SDS011;1493;51.496;7.210;2023-02-15T03:15:08;20.97;;;13.53;;
2966;SDS011;1493;51.496;7.210;2023-02-15T03:17:40;20.33;;;12.03;;
2966;SDS011;1493;51.496;7.210;2023-02-15T03:20:12;19.10;;;11.27;;
2966;SDS011;1493;51.496;7.210;2023-02-15T03:22:44;23.10;;;12.07;;
2966;SDS011;1493;51.496;7.210;2023-02-15T03:25:17;20.07;;;12.47;;
2966;SDS011;1493;51.496;7.210;2023-02-15T03:27:48;23.03;;;12.63;;
2966;SDS011;1493;51.496;7.210;2023-02-15T03:30:18;20.70;;;12.33;;
2966;SDS011;1493;51.496;7.210;2023-02-15T03:32:48;20.83;;;12.50;;
2966;SDS011;1493;51.496;7.210;2023-02-15T03:35:19;22.20;;;12.77;;
2966;SDS011;1493;51.496;7.210;2023-02-15T03:37:49;22.40;;;12.73;;
2966;SDS011;1493;51.496;7.210;2023-02-15T03:40:21;19.03;;;12.63;;
2966;SDS011;1493;51.496;7.210;2023-02-15T03:43:11;21.53;;;13.13;;
2966;SDS011;1493;51.496;7.210;2023-02-15T03:45:40;22.30;;;13.73;;
2966;SDS011;1493;51.496;7.210;2023-02-15T03:48:20;21.87;;;13.20;;
2966;SDS011;1493;51.496;7.210;2023-02-15T03:50:52;22.57;;;13.80;;
2966;SDS011;1493;51.496;7.210;2023-02-15T03:53:41;21.83;;;12.20;;
2966;SDS011;1493;51.496;7.210;2023-02-15T03:56:09;20.50;;;12.70;;
2966;SDS011;1493;51.496;7.210;2023-02-15T03:58:36;25.43;;;13.77;;
2966;SDS011;1493;51.496;7.210;2023-02-15T04:01:22;27.47;;;13.73;;
2966;SDS011;1493;51.496;7.210;2023-02-15T04:04:24;24.40;;;14.30;;
2966;SDS011;1493;51.496;7.210;2023-02-15T04:06:55;23.23;;;14.10;;
2966;SDS011;1493;51.496;7.210;2023-02-15T04:09:22;22.90;;;13.20;;
2966;SDS011;1493;51.496;7.210;2023-02-15T04:12:07;25.27;;;14.13;;
2966;SDS011;1493;51.496;7.210;2023-02-15T04:14:34;25.13;;;14.20;;
2966;SDS011;1493;51.496;7.210;2023-02-15T04:17:18;20.13;;;13.23;;
2966;SDS011;1493;51.496;7.210;2023-02-15T04:19:45;25.85;;;14.48;;
2966;SDS011;1493;51.496;7.210;2023-02-15T04:22:31;25.23;;;13.82;;
2966;SDS011;1493;51.496;7.210;2023-02-15T04:25:15;23.75;;;14.43;;
2966;SDS011;1493;51.496;7.210;2023-02-15T04:27:44;23.37;;;13.80;;
2966;SDS011;1493;51.496;7.210;2023-02-15T04:30:12;21.83;;;14.20;;
2966;SDS011;1493;51.496;7.210;2023-02-15T04:32:40;28.00;;;13.50;;
2966;SDS011;1493;51.496;7.210;2023-02-15T04:35:08;21.90;;;13.20;;
2966;SDS011;1493;51.496;7.210;2023-02-15T04:37:36;25.50;;;14.63;;
2966;SDS011;1493;51.496;7.210;2023-02-15T04:40:04;22.90;;;14.50;;
2966;SDS011;1493;51.496;7.210;2023-02-15T04:42:34;24.33;;;14.60;;
2966;SDS011;1493;51.496;7.210;2023-02-15T04:45:01;21.98;;;13.90;;
2966;SDS011;1493;51.496;7.210;2023-02-15T04:47:28;25.10;;;14.45;;
2966;SDS011;1493;51.496;7.210;2023-02-15T04:49:55;24.97;;;14.97;;
2966;SDS011;1493;51.496;7.210;2023-02-15T04:52:22;22.77;;;15.50;;
2966;SDS011;1493;51.496;7.210;2023-02-15T04:54:50;25.30;;;15.27;;
2966;SDS011;1493;51.496;7.210;2023-02-15T04:57:17;25.95;;;14.60;;
2966;SDS011;1493;51.496;7.210;2023-02-15T04:59:44;28.43;;;15.07;;
2966;SDS011;1493;51.496;7.210;2023-02-15T05:02:10;24.52;;;15.13;;
2966;SDS011;1493;51.496;7.210;2023-02-15T05:04:37;23.40;;;14.17;;
2966;SDS011;1493;51.496;7.210;2023-02-15T05:07:04;28.27;;;15.60;;
2966;SDS011;1493;51.496;7.210;2023-02-15T05:09:31;23.80;;;13.93;;
2966;SDS011;1493;51.496;7.210;2023-02-15T05:11:59;23.47;;;14.20;;
2966;SDS011;1493;51.496;7.210;2023-02-15T05:14:26;25.50;;;14.77;;
2966;SDS011;1493;51.496;7.210;2023-02-15T05:16:53;24.33;;;14.70;;
2966;SDS011;1493;51.496;7.210;2023-02-15T05:19:19;26.43;;;15.10;;
2966;SDS011;1493;51.496;7.210;2023-02-15T05:21:48;24.13;;;14.20;;
2966;SDS011;1493;51.496;7.210;2023-02-15T05:24:15;24.37;;;14.67;;
2966;SDS011;1493;51.496;7.210;2023-02-15T05:27:00;30.63;;;17.43;;
2966;SDS011;1493;51.496;7.210;2023-02-15T05:29:45;26.17;;;14.20;;
2966;SDS011;1493;51.496;7.210;2023-02-15T05:32:12;22.63;;;13.77;;
2966;SDS011;1493;51.496;7.210;2023-02-15T05:34:39;24.17;;;14.70;;
2966;SDS011;1493;51.496;7.210;2023-02-15T05:37:06;26.17;;;16.37;;
2966;SDS011;1493;51.496;7.210;2023-02-15T05:39:38;23.85;;;14.15;;
2966;SDS011;1493;51.496;7.210;2023-02-15T05:55:05;25.00;;;14.27;;
2966;SDS011;1493;51.496;7.210;2023-02-15T05:57:33;24.90;;;14.83;;
2966;SDS011;1493;51.496;7.210;2023-02-15T06:00:01;29.05;;;16.45;;
2966;SDS011;1493;51.496;7.210;2023-02-15T06:02:32;23.10;;;14.73;;
2966;SDS011;1493;51.496;7.210;2023-02-15T06:05:01;28.43;;;14.77;;
2966;SDS011;1493;51.496;7.210;2023-02-15T06:07:28;26.87;;;16.20;;
2966;SDS011;1493;51.496;7.210;2023-02-15T06:09:56;24.80;;;14.67;;
2966;SDS011;1493;51.496;7.210;2023-02-15T06:12:24;27.20;;;16.13;;
2966;SDS011;1493;51.496;7.210;2023-02-15T06:14:51;30.20;;;15.07;;
2966;SDS011;1493;51.496;7.210;2023-02-15T06:17:19;25.87;;;14.77;;
2966;SDS011;1493;51.496;7.210;2023-02-15T06:19:46;23.98;;;13.98;;
2966;SDS011;1493;51.496;7.210;2023-02-15T06:22:14;20.90;;;14.70;;
2966;SDS011;1493;51.496;7.210;2023-02-15T06:24:41;24.37;;;14.47;;
2966;SDS011;1493;51.496;7.210;2023-02-15T06:27:08;26.13;;;15.43;;
2966;SDS011;1493;51.496;7.210;2023-02-15T06:29:42;24.77;;;16.00;;
2966;SDS011;1493;51.496;7.210;2023-02-15T06:32:23;23.77;;;14.80;;
2966;SDS011;1493;51.496;7.210;2023-02-15T06:34:50;27.45;;;15.57;;
2966;SDS011;1493;51.496;7.210;2023-02-15T06:37:20;25.80;;;15.13;;
2966;SDS011;1493;51.496;7.210;2023-02-15T06:39:47;28.43;;;16.33;;
2966;SDS011;1493;51.496;7.210;2023-02-15T06:42:14;26.00;;;16.67;;
2966;SDS011;1493;51.496;7.210;2023-02-15T06:44:44;28.87;;;17.40;;
2966;SDS011;1493;51.496;7.210;2023-02-15T06:47:11;25.75;;;17.23;;
2966;SDS011;1493;51.496;7.210;2023-02-15T06:49:38;27.67;;;16.20;;
2966;SDS011;1493;51.496;7.210;2023-02-15T06:52:05;31.00;;;17.25;;
2966;SDS011;1493;51.496;7.210;2023-02-15T06:54:32;30.87;;;15.30;;
2966;SDS011;1493;51.496;7.210;2023-02-15T06:56:59;31.97;;;17.40;;
2966;SDS011;1493;51.496;7.210;2023-02-15T06:59:26;27.77;;;18.73;;
2966;SDS011;1493;51.496;7.210;2023-02-15T07:01:54;25.45;;;16.65;;
2966;SDS011;1493;51.496;7.210;2023-02-15T07:04:21;29.03;;;17.53;;
2966;SDS011;1493;51.496;7.210;2023-02-15T07:06:48;27.53;;;16.27;;
2966;SDS011;1493;51.496;7.210;2023-02-15T07:09:15;29.48;;;17.85;;
2966;SDS011;1493;51.496;7.210;2023-02-15T07:11:42;22.73;;;15.20;;
2966;SDS011;1493;51.496;7.210;2023-02-15T07:14:26;25.60;;;15.77;;
2966;SDS011;1493;51.496;7.210;2023-02-15T07:16:55;25.40;;;16.27;;
2966;SDS011;1493;51.496;7.210;2023-02-15T07:19:25;30.10;;;16.17;;
2966;SDS011;1493;51.496;7.210;2023-02-15T07:21:52;24.90;;;15.50;;
2966;SDS011;1493;51.496;7.210;2023-02-15T07:24:22;30.47;;;15.60;;
2966;SDS011;1493;51.496;7.210;2023-02-15T07:26:49;25.80;;;16.03;;
2966;SDS011;1493;51.496;7.210;2023-02-15T07:29:19;30.52;;;16.73;;
2966;SDS011;1493;51.496;7.210;2023-02-15T07:31:46;32.28;;;17.00;;
2966;SDS011;1493;51.496;7.210;2023-02-15T07:34:15;29.40;;;18.10;;
2966;SDS011;1493;51.496;7.210;2023-02-15T07:36:42;30.67;;;16.47;;
2966;SDS011;1493;51.496;7.210;2023-02-15T07:39:10;26.53;;;17.20;;
2966;SDS011;1493;51.496;7.210;2023-02-15T07:41:37;25.70;;;16.63;;
2966;SDS011;1493;51.496;7.210;2023-02-15T07:44:04;29.50;;;16.47;;
2966;SDS011;1493;51.496;7.210;2023-02-15T07:46:31;28.60;;;17.87;;
2966;SDS011;1493;51.496;7.210;2023-02-15T07:48:58;27.03;;;16.53;;
2966;SDS011;1493;51.496;7.210;2023-02-15T07:51:26;29.50;;;16.80;;
2966;SDS011;1493;51.496;7.210;2023-02-15T07:53:53;29.57;;;16.83;;
2966;SDS011;1493;51.496;7.210;2023-02-15T07:56:20;28.97;;;16.87;;
2966;SDS011;1493;51.496;7.210;2023-02-15T07:58:47;35.40;;;17.07;;
2966;SDS011;1493;51.496;7.210;2023-02-15T08:01:17;27.30;;;16.40;;
2966;SDS011;1493;51.496;7.210;2023-02-15T08:03:45;25.60;;;17.93;;
2966;SDS011;1493;51.496;7.210;2023-02-15T08:06:12;30.40;;;16.53;;
2966;SDS011;1493;51.496;7.210;2023-02-15T08:08:40;26.50;;;16.60;;
2966;SDS011;1493;51.496;7.210;2023-02-15T08:11:13;26.17;;;17.80;;
2966;SDS011;1493;51.496;7.210;2023-02-15T08:14:02;27.40;;;18.07;;
2966;SDS011;1493;51.496;7.210;2023-02-15T08:16:33;29.90;;;18.20;;
2966;SDS011;1493;51.496;7.210;2023-02-15T08:19:02;29.30;;;19.60;;
2966;SDS011;1493;51.496;7.210;2023-02-15T08:21:30;32.97;;;18.03;;
2966;SDS011;1493;51.496;7.210;2023-02-15T08:23:59;30.20;;;17.93;;
2966;SDS011;1493;51.496;7.210;2023-02-15T08:26:27;28.70;;;17.93;;
2966;SDS011;1493;51.496;7.210;2023-02-15T08:28:54;37.03;;;20.03;;
2966;SDS011;1493;51.496;7.210;2023-02-15T08:31:22;27.70;;;16.77;;
2966;SDS011;1493;51.496;7.210;2023-02-15T08:33:49;31.53;;;19.20;;
2966;SDS011;1493;51.496;7.210;2023-02-15T08:36:18;31.60;;;19.40;;
2966;SDS011;1493;51.496;7.210;2023-02-15T08:38:46;33.77;;;20.00;;
2966;SDS011;1493;51.496;7.210;2023-02-15T08:41:16;28.87;;;18.57;;
2966;SDS011;1493;51.496;7.210;2023-02-15T08:43:44;31.00;;;18.10;;
2966;SDS011;1493;51.496;7.210;2023-02-15T08:46:13;32.70;;;18.67;;
2966;SDS011;1493;51.496;7.210;2023-02-15T08:48:41;32.10;;;21.90;;
2966;SDS011;1493;51.496;7.210;2023-02-15T08:51:09;27.30;;;18.70;;
2966;SDS011;1493;51.496;7.210;2023-02-15T08:53:37;33.17;;;19.30;;
2966;SDS011;1493;51.496;7.210;2023-02-15T08:56:04;31.67;;;18.07;;
2966;SDS011;1493;51.496;7.210;2023-02-15T08:58:34;31.43;;;20.90;;
2966;SDS011;1493;51.496;7.210;2023-02-15T09:01:01;31.57;;;18.27;;
2966;SDS011;1493;51.496;7.210;2023-02-15T09:03:34;34.60;;;21.13;;
2966;SDS011;1493;51.496;7.210;2023-02-15T09:06:01;30.40;;;18.87;;
2966;SDS011;1493;51.496;7.210;2023-02-15T09:08:28;41.03;;;20.77;;
2966;SDS011;1493;51.496;7.210;2023-02-15T09:11:04;29.83;;;18.73;;
2966;SDS011;1493;51.496;7.210;2023-02-15T09:13:34;31.40;;;17.87;;
2966;SDS011;1493;51.496;7.210;2023-02-15T09:16:02;26.30;;;17.83;;
2966;SDS011;1493;51.496;7.210;2023-02-15T09:18:30;34.20;;;19.40;;
2966;SDS011;1493;51.496;7.210;2023-02-15T09:21:03;30.03;;;18.90;;
2966;SDS011;1493;51.496;7.210;2023-02-15T09:23:31;23.00;;;15.77;;
2966;SDS011;1493;51.496;7.210;2023-02-15T09:26:01;26.90;;;17.13;;
2966;SDS011;1493;51.496;7.210;2023-02-15T09:28:29;23.07;;;15.97;;
2966;SDS011;1493;51.496;7.210;2023-02-15T09:31:04;23.87;;;15.27;;
2966;SDS011;1493;51.496;7.210;2023-02-15T09:33:33;22.60;;;14.97;;
2966;SDS011;1493;51.496;7.210;2023-02-15T09:36:01;21.30;;;15.20;;
2966;SDS011;1493;51.496;7.210;2023-02-15T09:38:28;20.83;;;12.87;;
2966;SDS011;1493;51.496;7.210;2023-02-15T09:40:58;25.93;;;13.87;;
2966;SDS011;1493;51.496;7.210;2023-02-15T09:43:39;16.80;;;11.93;;
2966;SDS011;1493;51.496;7.210;2023-02-15T09:46:22;18.13;;;11.40;;
2966;SDS011;1493;51.496;7.210;2023-02-15T09:49:01;23.17;;;13.90;;
2966;SDS011;1493;51.496;7.210;2023-02-15T09:51:39;19.93;;;13.37;;
2966;SDS011;1493;51.496;7.210;2023-02-15T09:54:20;26.37;;;16.80;;
2966;SDS011;1493;51.496;7.210;2023-02-15T09:56:52;22.40;;;14.80;;
2966;SDS011;1493;51.496;7.210;2023-02-15T09:59:26;19.40;;;12.87;;
2966;SDS011;1493;51.496;7.210;2023-02-15T10:02:05;23.40;;;15.07;;
2966;SDS011;1493;51.496;7.210;2023-02-15T10:04:54;25.57;;;15.60;;
2966;SDS011;1493;51.496;7.210;2023-02-15T10:07:34;23.30;;;14.10;;
2966;SDS011;1493;51.496;7.210;2023-02-15T10:10:15;22.77;;;14.20;;
2966;SDS011;1493;51.496;7.210;2023-02-15T10:15:53;20.03;;;12.17;;
2966;SDS011;1493;51.496;7.210;2023-02-15T10:18:34;18.33;;;12.17;;
2966;SDS011;1493;51.496;7.210;2023-02-15T10:21:21;16.57;;;10.77;;
2966;SDS011;1493;51.496;7.210;2023-02-15T10:24:03;19.40;;;12.07;;
2966;SDS011;1493;51.496;7.210;2023-02-15T10:26:49;19.87;;;11.33;;
2966;SDS011;1493;51.496;7.210;2023-02-15T10:29:19;16.93;;;11.17;;
2966;SDS011;1493;51.496;7.210;2023-02-15T10:31:55;19.73;;;13.60;;
2966;SDS011;1493;51.496;7.210;2023-02-15T10:34:30;16.53;;;11.97;;
2966;SDS011;1493;51.496;7.210;2023-02-15T10:37:11;19.40;;;12.50;;
2966;SDS011;1493;51.496;7.210;2023-02-15T10:40:10;14.87;;;10.63;;
2966;SDS011;1493;51.496;7.210;2023-02-15T10:42:49;19.10;;;12.13;;
2966;SDS011;1493;51.496;7.210;2023-02-15T10:45:33;17.40;;;11.20;;
2966;SDS011;1493;51.496;7.210;2023-02-15T10:48:15;18.73;;;13.00;;
2966;SDS011;1493;51.496;7.210;2023-02-15T10:50:59;16.80;;;10.77;;
2966;SDS011;1493;51.496;7.210;2023-02-15T10:53:34;18.27;;;11.10;;
2966;SDS011;1493;51.496;7.210;2023-02-15T10:56:19;16.80;;;11.53;;
2966;SDS011;1493;51.496;7.210;2023-02-15T10:58:54;15.17;;;12.13;;
2966;SDS011;1493;51.496;7.210;2023-02-15T11:01:34;14.30;;;10.50;;
2966;SDS011;1493;51.496;7.210;2023-02-15T11:04:20;16.30;;;11.07;;
2966;SDS011;1493;51.496;7.210;2023-02-15T11:07:12;15.30;;;10.57;;
2966;SDS011;1493;51.496;7.210;2023-02-15T11:09:45;12.77;;;10.07;;
2966;SDS011;1493;51.496;7.210;2023-02-15T11:12:16;15.00;;;11.30;;
2966;SDS011;1493;51.496;7.210;2023-02-15T11:14:46;15.73;;;11.33;;
2966;SDS011;1493;51.496;7.210;2023-02-15T11:17:21;13.27;;;10.97;;
2966;SDS011;1493;51.496;7.210;2023-02-15T11:19:55;13.23;;;10.07;;
2966;SDS011;1493;51.496;7.210;2023-02-15T11:22:31;12.50;;;9.97;;
2966;SDS011;1493;51.496;7.210;2023-02-15T11:25:01;15.37;;;10.50;;
2966;SDS011;1493;51.496;7.210;2023-02-15T11:27:29;12.97;;;9.60;;
2966;SDS011;1493;51.496;7.210;2023-02-15T11:29:59;14.83;;;10.67;;
2966;SDS011;1493;51.496;7.210;2023-02-15T11:32:35;12.83;;;10.60;;
2966;SDS011;1493;51.496;7.210;2023-02-15T11:35:10;13.23;;;9.63;;
2966;SDS011;1493;51.496;7.210;2023-02-15T11:37:48;13.10;;;10.47;;
2966;SDS011;1493;51.496;7.210;2023-02-15T11:40:21;13.37;;;10.43;;
2966;SDS011;1493;51.496;7.210;2023-02-15T11:42:51;12.30;;;10.43;;
2966;SDS011;1493;51.496;7.210;2023-02-15T11:45:22;15.33;;;10.90;;
2966;SDS011;1493;51.496;7.210;2023-02-15T11:47:53;12.60;;;9.57;;
2966;SDS011;1493;51.496;7.210;2023-02-15T11:50:22;11.20;;;8.37;;
2966;SDS011;1493;51.496;7.210;2023-02-15T11:52:52;9.93;;;8.13;;
2966;SDS011;1493;51.496;7.210;2023-02-15T11:55:24;10.90;;;8.10;;
2966;SDS011;1493;51.496;7.210;2023-02-15T11:57:54;10.30;;;8.70;;
2966;SDS011;1493;51.496;7.210;2023-02-15T12:00:30;11.70;;;9.03;;
2966;SDS011;1493;51.496;7.210;2023-02-15T12:03:02;11.60;;;8.23;;
2966;SDS011;1493;51.496;7.210;2023-02-15T12:05:35;10.43;;;8.10;;
2966;SDS011;1493;51.496;7.210;2023-02-15T12:08:10;10.37;;;8.20;;
2966;SDS011;1493;51.496;7.210;2023-02-15T12:10:42;9.80;;;7.40;;
2966;SDS011;1493;51.496;7.210;2023-02-15T12:13:20;11.10;;;7.80;;
2966;SDS011;1493;51.496;7.210;2023-02-15T12:15:47;12.53;;;8.70;;
2966;SDS011;1493;51.496;7.210;2023-02-15T12:18:20;10.40;;;7.87;;
2966;SDS011;1493;51.496;7.210;2023-02-15T12:20:57;11.23;;;9.10;;
2966;SDS011;1493;51.496;7.210;2023-02-15T12:23:27;11.07;;;8.47;;
2966;SDS011;1493;51.496;7.210;2023-02-15T12:25:54;10.50;;;8.33;;
2966;SDS011;1493;51.496;7.210;2023-02-15T12:28:25;11.67;;;8.50;;
2966;SDS011;1493;51.496;7.210;2023-02-15T12:30:56;11.37;;;7.33;;
2966;SDS011;1493;51.496;7.210;2023-02-15T12:33:26;9.37;;;7.20;;
2966;SDS011;1493;51.496;7.210;2023-02-15T12:35:56;12.10;;;8.77;;
2966;SDS011;1493;51.496;7.210;2023-02-15T12:38:28;13.70;;;9.60;;
2966;SDS011;1493;51.496;7.210;2023-02-15T12:40:58;11.00;;;7.83;;
2966;SDS011;1493;51.496;7.210;2023-02-15T12:43:29;14.00;;;10.00;;
2966;SDS011;1493;51.496;7.210;2023-02-15T12:46:14;10.90;;;7.93;;
2966;SDS011;1493;51.496;7.210;2023-02-15T12:48:51;12.67;;;7.87;;
2966;SDS011;1493;51.496;7.210;2023-02-15T12:51:37;14.10;;;8.97;;
2966;SDS011;1493;51.496;7.210;2023-02-15T12:54:16;14.50;;;8.03;;
2966;SDS011;1493;51.496;7.210;2023-02-15T12:56:51;8.97;;;6.77;;
2966;SDS011;1493;51.496;7.210;2023-02-15T12:59:18;11.23;;;9.10;;
2966;SDS011;1493;51.496;7.210;2023-02-15T13:01:46;11.17;;;8.40;;
2966;SDS011;1493;51.496;7.210;2023-02-15T13:04:15;12.40;;;9.10;;
2966;SDS011;1493;51.496;7.210;2023-02-15T13:06:49;11.00;;;8.27;;
2966;SDS011;1493;51.496;7.210;2023-02-15T13:09:33;13.30;;;8.70;;
2966;SDS011;1493;51.496;7.210;2023-02-15T13:12:16;15.43;;;8.90;;
2966;SDS011;1493;51.496;7.210;2023-02-15T13:14:47;12.00;;;9.17;;
2966;SDS011;1493;51.496;7.210;2023-02-15T13:17:17;10.80;;;9.20;;
2966;SDS011;1493;51.496;7.210;2023-02-15T13:19:49;11.37;;;9.43;;
2966;SDS011;1493;51.496;7.210;2023-02-15T13:22:20;14.33;;;8.73;;
2966;SDS011;1493;51.496;7.210;2023-02-15T13:24:53;16.60;;;9.67;;
2966;SDS011;1493;51.496;7.210;2023-02-15T13:27:23;13.10;;;9.20;;
2966;SDS011;1493;51.496;7.210;2023-02-15T13:29:55;10.83;;;8.73;;
2966;SDS011;1493;51.496;7.210;2023-02-15T13:32:26;12.07;;;8.57;;
2966;SDS011;1493;51.496;7.210;2023-02-15T13:34:56;13.67;;;9.83;;
2966;SDS011;1493;51.496;7.210;2023-02-15T13:37:30;13.90;;;9.23;;
2966;SDS011;1493;51.496;7.210;2023-02-15T13:40:18;11.13;;;8.20;;
2966;SDS011;1493;51.496;7.210;2023-02-15T13:42:50;12.70;;;8.23;;
2966;SDS011;1493;51.496;7.210;2023-02-15T13:45:25;13.73;;;9.07;;
2966;SDS011;1493;51.496;7.210;2023-02-15T13:48:07;12.80;;;9.27;;
2966;SDS011;1493;51.496;7.210;2023-02-15T13:50:52;13.97;;;9.53;;
2966;SDS011;1493;51.496;7.210;2023-02-15T13:56:32;13.17;;;9.93;;
2966;SDS011;1493;51.496;7.210;2023-02-15T13:59:11;11.40;;;9.30;;
2966;SDS011;1493;51.496;7.210;2023-02-15T14:02:26;16.20;;;10.87;;
2966;SDS011;1493;51.496;7.210;2023-02-15T14:05:13;16.80;;;11.07;;
2966;SDS011;1493;51.496;7.210;2023-02-15T14:07:53;12.83;;;10.57;;
2966;SDS011;1493;51.496;7.210;2023-02-15T14:10:33;12.87;;;10.10;;
2966;SDS011;1493;51.496;7.210;2023-02-15T14:13:20;10.70;;;8.70;;
2966;SDS011;1493;51.496;7.210;2023-02-15T14:16:11;16.40;;;10.27;;
2966;SDS011;1493;51.496;7.210;2023-02-15T14:18:46;13.60;;;10.07;;
2966;SDS011;1493;51.496;7.210;2023-02-15T14:21:18;14.00;;;9.87;;
2966;SDS011;1493;51.496;7.210;2023-02-15T14:23:52;13.13;;;9.20;;
2966;SDS011;1493;51.496;7.210;2023-02-15T14:26:31;14.63;;;10.27;;
2966;SDS011;1493;51.496;7.210;2023-02-15T14:29:10;16.40;;;9.87;;
2966;SDS011;1493;51.496;7.210;2023-02-15T14:31:47;14.00;;;9.43;;
2966;SDS011;1493;51.496;7.210;2023-02-15T14:34:19;13.43;;;9.37;;
2966;SDS011;1493;51.496;7.210;2023-02-15T14:36:49;16.53;;;10.20;;
2966;SDS011;1493;51.496;7.210;2023-02-15T14:39:19;12.40;;;8.90;;
2966;SDS011;1493;51.496;7.210;2023-02-15T14:42:10;14.77;;;9.20;;
2966;SDS011;1493;51.496;7.210;2023-02-15T14:44:45;13.67;;;8.73;;
2966;SDS011;1493;51.496;7.210;2023-02-15T14:47:18;14.90;;;9.63;;
2966;SDS011;1493;51.496;7.210;2023-02-15T14:49:48;13.40;;;8.53;;
2966;SDS011;1493;51.496;7.210;2023-02-15T14:52:15;15.77;;;8.43;;
2966;SDS011;1493;51.496;7.210;2023-02-15T14:54:55;11.07;;;7.60;;
2966;SDS011;1493;51.496;7.210;2023-02-15T14:57:27;12.90;;;7.73;;
2966;SDS011;1493;51.496;7.210;2023-02-15T15:00:00;10.77;;;7.57;;
2966;SDS011;1493;51.496;7.210;2023-02-15T15:05:20;10.33;;;6.47;;
2966;SDS011;1493;51.496;7.210;2023-02-15T15:07:50;10.53;;;7.60;;
2966;SDS011;1493;51.496;7.210;2023-02-15T15:10:35;12.87;;;8.93;;
2966;SDS011;1493;51.496;7.210;2023-02-15T15:19:08;15.47;;;7.77;;
2966;SDS011;1493;51.496;7.210;2023-02-15T15:21:51;14.30;;;7.87;;
2966;SDS011;1493;51.496;7.210;2023-02-15T15:43:00;11.90;;;6.33;;
2966;SDS011;1493;51.496;7.210;2023-02-15T15:48:47;10.47;;;6.40;;
2966;SDS011;1493;51.496;7.210;2023-02-15T15:51:15;13.03;;;7.27;;
2966;SDS011;1493;51.496;7.210;2023-02-15T15:53:46;10.40;;;6.80;;
2966;SDS011;1493;51.496;7.210;2023-02-15T15:56:18;12.07;;;6.93;;
2966;SDS011;1493;51.496;7.210;2023-02-15T15:58:52;15.10;;;7.43;;
2966;SDS011;1493;51.496;7.210;2023-02-15T16:01:26;11.10;;;6.23;;
2966;SDS011;1493;51.496;7.210;2023-02-15T16:03:55;10.00;;;5.93;;
2966;SDS011;1493;51.496;7.210;2023-02-15T16:06:27;12.97;;;7.13;;
2966;SDS011;1493;51.496;7.210;2023-02-15T16:09:15;9.97;;;6.50;;
2966;SDS011;1493;51.496;7.210;2023-02-15T16:11:45;11.70;;;7.27;;
2966;SDS011;1493;51.496;7.210;2023-02-15T16:14:15;14.10;;;5.87;;